createdAt,value
2023-04-19T00:00:58.559Z,15.00
2023-04-19T00:01:58.556Z,15.30
2023-04-19T00:02:58.844Z,15.40
2023-04-19T00:03:58.663Z,15.20
2023-04-19T00:04:58.611Z,15.20
2023-04-19T00:05:58.667Z,16.40
2023-04-19T00:06:58.625Z,16.50
2023-04-19T00:07:58.448Z,15.20
2023-04-19T00:08:58.504Z,14.60
2023-04-19T00:09:58.665Z,16.40
2023-04-19T00:10:58.457Z,14.80
2023-04-19T00:11:58.425Z,15.20
2023-04-19T00:12:58.412Z,14.60
2023-04-19T00:13:58.359Z,15.50
2023-04-19T00:14:58.386Z,15.20
2023-04-19T00:15:58.376Z,16.20
2023-04-19T00:16:58.512Z,15.20
2023-04-19T00:17:58.446Z,15.10
2023-04-19T00:18:58.362Z,15.40
2023-04-19T00:19:58.334Z,15.50
2023-04-19T00:20:58.331Z,15.20
2023-04-19T00:21:58.372Z,15.50
2023-04-19T00:22:58.360Z,15.50
2023-04-19T00:23:58.307Z,15.70
2023-04-19T00:24:58.265Z,16.10
2023-04-19T00:25:58.314Z,16.10
2023-04-19T00:26:58.266Z,15.80
2023-04-19T00:27:58.280Z,15.80
2023-04-19T00:28:58.259Z,15.80
2023-04-19T00:29:58.270Z,14.90
2023-04-19T00:30:58.357Z,15.50
2023-04-19T00:31:58.270Z,16.10
2023-04-19T00:32:58.316Z,14.80
2023-04-19T00:33:58.209Z,14.10
2023-04-19T00:34:58.178Z,15.10
2023-04-19T00:35:58.163Z,16.00
2023-04-19T00:36:58.180Z,15.40
2023-04-19T00:37:58.229Z,15.60
2023-04-19T00:38:58.220Z,15.20
2023-04-19T00:39:58.183Z,14.60
2023-04-19T00:40:58.224Z,14.80
2023-04-19T00:41:58.209Z,15.20
2023-04-19T00:42:58.211Z,15.30
2023-04-19T00:43:58.143Z,14.70
2023-04-19T00:44:58.862Z,14.00
2023-04-19T00:45:58.119Z,14.10
2023-04-19T00:46:58.155Z,14.00
2023-04-19T00:47:58.077Z,13.60
2023-04-19T00:48:58.061Z,13.10
2023-04-19T00:49:58.946Z,12.60
2023-04-19T00:50:58.053Z,12.90
2023-04-19T00:51:58.041Z,12.60
2023-04-19T00:52:58.006Z,12.20
2023-04-19T00:53:58.150Z,12.80
2023-04-19T00:54:57.992Z,12.30
2023-04-19T00:55:58.000Z,11.90
2023-04-19T00:56:57.987Z,11.20
2023-04-19T00:57:57.945Z,12.40
2023-04-19T00:58:58.011Z,12.30
2023-04-19T00:59:57.921Z,11.70
2023-04-19T01:00:58.843Z,12.00
2023-04-19T01:01:58.022Z,12.60
2023-04-19T01:02:57.989Z,12.20
2023-04-19T01:03:57.919Z,10.80
2023-04-19T01:04:57.898Z,10.40
2023-04-19T01:05:57.875Z,10.50
2023-04-19T01:06:57.886Z,10.80
2023-04-19T01:07:57.980Z,9.90
2023-04-19T01:08:57.849Z,10.10
2023-04-19T01:09:57.791Z,9.40
2023-04-19T01:10:57.899Z,10.20
2023-04-19T01:11:57.798Z,10.70
2023-04-19T01:12:57.958Z,10.40
2023-04-19T01:13:57.779Z,9.00
2023-04-19T01:14:57.787Z,8.50
2023-04-19T01:15:57.817Z,8.20
2023-04-19T01:16:57.776Z,7.80
2023-04-19T01:17:57.834Z,8.00
2023-04-19T01:18:57.876Z,7.90
2023-04-19T01:19:57.695Z,8.10
2023-04-19T01:20:57.758Z,8.40
2023-04-19T01:21:57.708Z,8.20
2023-04-19T01:22:57.913Z,9.60
2023-04-19T01:23:57.761Z,7.40
2023-04-19T01:24:57.688Z,7.70
2023-04-19T01:25:57.652Z,7.10
2023-04-19T01:26:57.768Z,7.50
2023-04-19T01:27:57.666Z,7.00
2023-04-19T01:28:57.676Z,7.30
2023-04-19T01:29:57.655Z,7.50
2023-04-19T01:30:57.693Z,7.20
2023-04-19T01:31:57.698Z,7.60
2023-04-19T01:32:57.680Z,6.90
2023-04-19T01:33:57.627Z,6.60
2023-04-19T01:34:57.654Z,6.60
2023-04-19T01:35:57.667Z,6.60
2023-04-19T01:36:57.554Z,6.70
2023-04-19T01:37:58.358Z,6.60
2023-04-19T01:38:57.571Z,6.60
2023-04-19T01:39:57.605Z,6.00
2023-04-19T01:40:57.519Z,6.20
2023-04-19T01:41:57.487Z,6.30
2023-04-19T01:42:57.661Z,6.00
2023-04-19T01:43:57.484Z,5.70
2023-04-19T01:44:57.520Z,6.00
2023-04-19T01:45:57.445Z,5.90
2023-04-19T01:46:57.541Z,5.70
2023-04-19T01:47:57.559Z,6.20
2023-04-19T01:48:57.487Z,5.80
2023-04-19T01:49:58.020Z,5.80
2023-04-19T01:50:57.455Z,6.20
2023-04-19T01:51:57.451Z,5.90
2023-04-19T01:52:57.475Z,5.70
2023-04-19T01:53:57.397Z,5.90
2023-04-19T01:54:57.409Z,6.80
2023-04-19T01:55:57.376Z,6.10
2023-04-19T01:56:57.350Z,5.60
2023-04-19T01:57:57.440Z,5.40
2023-04-19T01:58:58.348Z,5.80
2023-04-19T01:59:57.419Z,6.40
2023-04-19T02:00:57.388Z,6.00
2023-04-19T02:01:57.425Z,6.60
2023-04-19T02:02:57.443Z,6.10
2023-04-19T02:03:57.358Z,5.40
2023-04-19T02:04:57.307Z,5.70
2023-04-19T02:05:57.307Z,5.20
2023-04-19T02:06:57.255Z,6.10
2023-04-19T02:07:57.380Z,5.60
2023-04-19T02:08:57.283Z,5.80
2023-04-19T02:09:57.302Z,5.10
2023-04-19T02:10:58.015Z,5.60
2023-04-19T02:11:57.187Z,7.40
2023-04-19T02:12:57.268Z,5.40
2023-04-19T02:13:57.170Z,6.20
2023-04-19T02:15:11.350Z,5.60
2023-04-19T02:15:57.208Z,6.70
2023-04-19T02:16:57.262Z,6.10
2023-04-19T02:17:57.237Z,5.10
2023-04-19T02:18:57.138Z,5.50
2023-04-19T02:19:57.203Z,5.50
2023-04-19T02:20:57.176Z,5.00
2023-04-19T02:21:57.129Z,5.40
2023-04-19T02:22:57.120Z,5.30
2023-04-19T02:23:57.130Z,5.20
2023-04-19T02:24:57.079Z,5.10
2023-04-19T02:25:57.081Z,5.60
2023-04-19T02:26:57.113Z,6.10
2023-04-19T02:27:57.045Z,5.30
2023-04-19T02:28:57.026Z,4.70
2023-04-19T02:29:57.111Z,5.80
2023-04-19T02:30:57.042Z,4.50
2023-04-19T02:31:57.120Z,5.90
2023-04-19T02:32:57.049Z,5.50
2023-04-19T02:33:57.105Z,4.40
2023-04-19T02:34:57.021Z,5.10
2023-04-19T02:35:57.043Z,5.40
2023-04-19T02:36:57.049Z,6.10
2023-04-19T02:37:57.000Z,4.50
2023-04-19T02:38:56.925Z,4.40
2023-04-19T02:39:56.898Z,5.00
2023-04-19T02:40:57.018Z,5.30
2023-04-19T02:41:56.916Z,4.40
2023-04-19T02:42:56.956Z,4.40
2023-04-19T02:43:56.885Z,3.90
2023-04-19T02:44:56.831Z,4.00
2023-04-19T02:45:57.002Z,3.90
2023-04-19T02:46:56.903Z,4.40
2023-04-19T02:47:57.793Z,4.60
2023-04-19T02:48:56.894Z,4.20
2023-04-19T02:49:56.935Z,5.10
2023-04-19T02:50:56.875Z,4.30
2023-04-19T02:51:57.037Z,3.80
2023-04-19T02:52:56.829Z,4.20
2023-04-19T02:53:56.796Z,4.70
2023-04-19T02:54:57.448Z,3.90
2023-04-19T02:55:56.770Z,4.30
2023-04-19T02:57:07.010Z,5.30
2023-04-19T02:57:56.755Z,3.90
2023-04-19T02:58:56.849Z,4.40
2023-04-19T02:59:57.711Z,4.80
2023-04-19T03:00:56.775Z,4.00
2023-04-19T03:01:56.806Z,5.40
2023-04-19T03:02:56.945Z,4.50
2023-04-19T03:03:56.856Z,4.20
2023-04-19T03:04:56.699Z,4.10
2023-04-19T03:05:56.732Z,4.20
2023-04-19T03:06:56.725Z,4.60
2023-04-19T03:07:56.775Z,5.10
2023-04-19T03:08:56.646Z,4.20
2023-04-19T03:09:56.626Z,4.20
2023-04-19T03:10:57.507Z,4.30
2023-04-19T03:11:56.631Z,4.80
2023-04-19T03:12:56.785Z,3.90
2023-04-19T03:13:56.570Z,4.20
2023-04-19T03:14:56.608Z,4.70
2023-04-19T03:15:56.604Z,4.00
2023-04-19T03:16:56.724Z,4.80
2023-04-19T03:17:57.253Z,4.40
2023-04-19T03:18:56.603Z,4.20
2023-04-19T03:19:56.593Z,4.80
2023-04-19T03:20:56.595Z,4.30
2023-04-19T03:21:56.773Z,4.60
2023-04-19T03:22:56.514Z,4.20
2023-04-19T03:23:56.554Z,4.40
2023-04-19T03:24:56.560Z,4.90
2023-04-19T03:25:56.482Z,4.30
2023-04-19T03:26:56.510Z,4.40
2023-04-19T03:27:56.563Z,5.00
2023-04-19T03:28:56.686Z,4.40
2023-04-19T03:29:56.478Z,4.30
2023-04-19T03:30:56.489Z,4.90
2023-04-19T03:31:57.361Z,4.60
2023-04-19T03:32:56.502Z,5.10
2023-04-19T03:33:56.428Z,4.80
2023-04-19T03:34:56.369Z,4.30
2023-04-19T03:35:56.458Z,4.60
2023-04-19T03:36:56.503Z,4.20
2023-04-19T03:37:56.393Z,4.30
2023-04-19T03:38:57.312Z,4.20
2023-04-19T03:39:56.332Z,4.00
2023-04-19T03:40:57.692Z,5.50
2023-04-19T03:41:56.378Z,4.40
2023-04-19T03:42:58.825Z,4.50
2023-04-19T03:43:56.268Z,4.30
2023-04-19T03:44:56.456Z,4.40
2023-04-19T03:45:56.289Z,5.00
2023-04-19T03:46:56.430Z,4.80
2023-04-19T03:47:57.038Z,4.60
2023-04-19T03:48:56.272Z,5.20
2023-04-19T03:49:56.252Z,4.80
2023-04-19T03:50:56.302Z,5.10
2023-04-19T03:51:56.259Z,4.80
2023-04-19T03:52:56.994Z,5.10
2023-04-19T03:53:56.194Z,4.40
2023-04-19T03:54:56.194Z,4.60
2023-04-19T03:55:56.213Z,5.00
2023-04-19T03:56:56.466Z,4.90
2023-04-19T03:57:56.415Z,4.80
2023-04-19T03:58:56.128Z,5.20
2023-04-19T03:59:56.144Z,4.70
2023-04-19T04:00:56.116Z,5.10
2023-04-19T04:01:56.173Z,5.20
2023-04-19T04:02:56.377Z,5.90
2023-04-19T04:03:56.324Z,4.40
2023-04-19T04:04:56.168Z,4.70
2023-04-19T04:05:56.147Z,5.60
2023-04-19T04:07:39.368Z,4.90
2023-04-19T04:07:56.070Z,4.60
2023-04-19T04:08:56.153Z,4.70
2023-04-19T04:09:56.110Z,5.10
2023-04-19T04:10:56.051Z,4.90
2023-04-19T04:11:56.025Z,5.30
2023-04-19T04:12:56.326Z,5.80
2023-04-19T04:13:56.036Z,5.30
2023-04-19T04:14:55.998Z,5.70
2023-04-19T04:15:56.543Z,5.40
2023-04-19T04:16:56.039Z,5.30
2023-04-19T04:17:56.082Z,5.40
2023-04-19T04:18:56.014Z,5.70
2023-04-19T04:19:59.005Z,6.40
2023-04-19T04:20:55.997Z,5.70
2023-04-19T04:21:56.140Z,5.60
2023-04-19T04:22:56.112Z,6.30
2023-04-19T04:23:55.880Z,5.50
2023-04-19T04:24:56.448Z,5.50
2023-04-19T04:25:55.920Z,6.80
2023-04-19T04:26:55.916Z,6.30
2023-04-19T04:27:55.871Z,5.90
2023-04-19T04:28:55.888Z,5.60
2023-04-19T04:29:55.884Z,5.60
2023-04-19T04:30:55.965Z,5.30
2023-04-19T04:31:56.016Z,5.40
2023-04-19T04:32:59.148Z,5.50
2023-04-19T04:33:55.864Z,5.60
2023-04-19T04:34:55.796Z,5.90
2023-04-19T04:35:55.825Z,6.70
2023-04-19T04:36:55.838Z,5.90
2023-04-19T04:37:56.213Z,5.80
2023-04-19T04:38:55.845Z,5.80
2023-04-19T04:39:56.074Z,6.50
2023-04-19T04:40:57.069Z,5.90
2023-04-19T04:41:55.751Z,5.90
2023-04-19T04:42:55.783Z,6.80
2023-04-19T04:44:10.799Z,7.40
2023-04-19T04:44:57.741Z,5.50
2023-04-19T04:46:02.074Z,5.70
2023-04-19T04:46:55.735Z,6.30
2023-04-19T04:47:55.775Z,5.60
2023-04-19T04:53:59.457Z,6.70
2023-04-19T04:55:00.732Z,6.60
2023-04-19T04:56:00.628Z,6.00
2023-04-19T04:57:00.677Z,7.00
2023-04-19T04:58:00.912Z,6.00
2023-04-19T04:59:00.585Z,5.70
2023-04-19T05:00:00.703Z,6.80
2023-04-19T05:01:00.791Z,6.50
2023-04-19T05:02:00.676Z,6.50
2023-04-19T05:03:00.669Z,6.60
2023-04-19T05:04:00.663Z,8.10
2023-04-19T05:05:00.511Z,6.80
2023-04-19T05:06:02.514Z,7.40
2023-04-19T05:07:00.769Z,7.00
2023-04-19T05:08:00.512Z,5.80
2023-04-19T05:09:00.580Z,7.20
2023-04-19T05:10:04.086Z,6.80
2023-04-19T05:11:00.536Z,6.10
2023-04-19T05:12:01.422Z,7.00
2023-04-19T05:13:01.324Z,6.90
2023-04-19T05:14:01.452Z,6.60
2023-04-19T05:15:02.834Z,6.50
2023-04-19T05:16:01.060Z,7.00
2023-04-19T05:17:00.721Z,7.10
2023-04-19T05:18:01.153Z,5.90
2023-04-19T05:19:03.540Z,8.10
2023-04-19T05:20:00.367Z,6.90
2023-04-19T05:21:01.198Z,8.20
2023-04-19T05:22:00.485Z,6.10
2023-04-19T05:23:00.554Z,7.10
2023-04-19T05:24:00.328Z,8.50
2023-04-19T05:25:01.901Z,5.70
2023-04-19T05:26:00.348Z,6.40
2023-04-19T05:27:02.821Z,6.00
2023-04-19T05:28:01.585Z,7.60
2023-04-19T05:29:01.308Z,7.70
2023-04-19T05:30:00.428Z,6.50
2023-04-19T05:31:00.328Z,6.70
2023-04-19T05:32:06.161Z,8.00
2023-04-19T05:33:00.479Z,6.60
2023-04-19T05:34:00.235Z,5.90
2023-04-19T05:35:00.359Z,6.20
2023-04-19T05:36:00.243Z,6.50
2023-04-19T05:37:00.263Z,7.10
2023-04-19T05:38:00.404Z,7.10
2023-04-19T05:39:00.407Z,8.70
2023-04-19T05:40:00.477Z,6.10
2023-04-19T05:41:02.906Z,5.20
2023-04-19T05:42:04.663Z,5.00
2023-04-19T05:43:00.205Z,6.90
2023-04-19T05:44:00.220Z,6.00
2023-04-19T05:45:00.125Z,6.60
2023-04-19T05:46:21.334Z,7.10
2023-04-19T05:47:05.561Z,5.80
2023-04-19T05:48:00.246Z,6.20
2023-04-19T05:49:07.188Z,6.30
2023-04-19T05:50:00.168Z,7.60
2023-04-19T05:51:00.542Z,6.60
2023-04-19T05:52:01.744Z,6.20
2023-04-19T05:53:00.146Z,6.60
2023-04-19T05:54:00.223Z,6.00
2023-04-19T05:55:00.074Z,6.40
2023-04-19T05:56:02.307Z,5.90
2023-04-19T05:57:00.226Z,6.70
2023-04-19T05:58:00.313Z,5.70
2023-04-19T05:59:00.008Z,5.80
2023-04-19T06:01:00.155Z,6.50
2023-04-19T06:02:03.606Z,5.90
2023-04-19T06:03:01.413Z,6.10
2023-04-19T06:04:00.628Z,5.70
2023-04-19T06:05:07.955Z,5.10
2023-04-19T06:06:02.106Z,5.50
2023-04-19T06:07:02.070Z,5.60
2023-04-19T06:08:02.775Z,7.30
2023-04-19T06:09:02.078Z,8.10
2023-04-19T06:10:00.793Z,5.80
2023-04-19T06:11:05.131Z,7.40
2023-04-19T06:12:02.025Z,6.60
2023-04-19T06:13:00.512Z,5.10
2023-04-19T06:14:01.770Z,6.10
2023-04-19T06:14:59.909Z,5.40
2023-04-19T06:16:04.954Z,7.70
2023-04-19T06:16:59.926Z,5.90
2023-04-19T06:18:01.414Z,5.50
2023-04-19T06:32:39.255Z,6.60
2023-04-19T06:33:39.021Z,4.60
2023-04-19T06:34:39.113Z,6.20
2023-04-19T06:35:40.283Z,9.60
2023-04-19T06:36:40.105Z,7.00
2023-04-19T06:37:40.130Z,7.20
2023-04-19T06:38:40.520Z,6.00
2023-04-19T06:39:40.183Z,5.00
2023-04-19T06:40:40.078Z,7.30
2023-04-19T06:41:40.083Z,6.80
2023-04-19T06:42:40.085Z,6.00
2023-04-19T06:43:40.239Z,5.60
2023-04-19T06:44:40.061Z,6.40
2023-04-19T06:45:40.751Z,7.70
2023-04-19T06:46:40.034Z,5.20
2023-04-19T06:47:40.193Z,6.20
2023-04-19T06:48:40.811Z,5.00
2023-04-19T06:49:40.085Z,5.70
2023-04-19T06:50:40.003Z,5.10
2023-04-19T06:51:40.040Z,6.00
2023-04-19T06:52:40.261Z,5.70
2023-04-19T06:53:40.045Z,5.90
2023-04-19T06:54:40.115Z,4.90
2023-04-19T06:55:39.980Z,4.50
2023-04-19T06:56:42.086Z,5.20
2023-04-19T06:59:47.877Z,6.50
2023-04-19T07:00:48.335Z,6.20
2023-04-19T07:01:48.047Z,5.90
2023-04-19T07:02:48.010Z,5.20
2023-04-19T07:03:48.050Z,5.70
2023-04-19T07:04:49.588Z,6.00
2023-04-19T07:06:00.107Z,5.10
2023-04-19T07:06:54.657Z,3.70
2023-04-19T07:07:52.007Z,4.70
2023-04-19T07:08:50.493Z,4.60
2023-04-19T07:09:49.938Z,6.50
2023-04-19T07:10:48.981Z,6.70
2023-04-19T07:11:49.199Z,3.70
2023-04-19T07:12:48.985Z,4.30
2023-04-19T07:13:49.333Z,5.00
2023-04-19T07:14:51.464Z,7.10
2023-04-19T07:15:49.076Z,4.80
2023-04-19T07:16:50.195Z,5.60
2023-04-19T07:17:48.991Z,3.70
2023-04-19T07:18:49.187Z,3.80
2023-04-19T07:19:49.015Z,4.50
2023-04-19T07:20:49.029Z,4.60
2023-04-19T07:21:49.016Z,3.90
2023-04-19T07:22:48.972Z,3.70
2023-04-19T07:23:48.862Z,4.30
2023-04-19T07:24:49.020Z,3.40
2023-04-19T07:25:48.821Z,3.40
2023-04-19T07:26:49.348Z,4.20
2023-04-19T07:27:48.811Z,5.20
2023-04-19T07:28:48.932Z,4.60
2023-04-19T07:29:48.794Z,5.00
2023-04-19T07:30:48.884Z,5.50
2023-04-19T07:31:48.889Z,3.80
2023-04-19T07:32:49.219Z,3.40
2023-04-19T07:33:48.899Z,4.40
2023-04-19T07:34:48.886Z,4.20
2023-04-19T07:35:48.987Z,4.80
2023-04-19T07:36:49.617Z,3.90
2023-04-19T07:37:48.683Z,2.90
2023-04-19T07:38:48.732Z,5.10
2023-04-19T07:39:48.776Z,6.00
2023-04-19T07:40:49.151Z,4.20
2023-04-19T07:41:48.804Z,3.90
2023-04-19T07:42:48.722Z,4.10
2023-04-19T07:43:48.642Z,3.90
2023-04-19T07:44:48.636Z,3.60
2023-04-19T07:45:48.631Z,4.00
2023-04-19T07:46:48.680Z,4.30
2023-04-19T07:47:48.997Z,3.40
2023-04-19T07:48:48.586Z,6.30
2023-04-19T07:49:48.590Z,4.10
2023-04-19T07:50:48.578Z,3.60
2023-04-19T07:51:48.489Z,3.90
2023-04-19T07:52:48.748Z,3.50
2023-04-19T07:53:48.638Z,3.10
2023-04-19T07:54:48.520Z,3.70
2023-04-19T07:55:48.570Z,2.40
2023-04-19T07:56:48.743Z,4.70
2023-04-19T07:57:48.507Z,3.40
2023-04-19T07:58:56.497Z,3.70
2023-04-19T07:59:49.822Z,3.20
2023-04-19T08:00:48.665Z,3.90
2023-04-19T08:01:48.766Z,4.20
2023-04-19T08:02:51.100Z,3.80
2023-04-19T08:03:49.619Z,3.70
2023-04-19T08:04:48.948Z,2.80
2023-04-19T08:05:48.604Z,3.70
2023-04-19T08:06:48.531Z,4.20
2023-04-19T08:07:48.348Z,5.20
2023-04-19T08:08:49.775Z,3.10
2023-04-19T08:09:48.722Z,3.50
2023-04-19T08:10:48.670Z,3.50
2023-04-19T08:11:48.306Z,2.80
2023-04-19T08:13:03.545Z,4.10
2023-04-19T08:14:02.849Z,5.00
2023-04-19T08:14:59.942Z,3.60
2023-04-19T08:16:27.113Z,3.10
2023-04-19T08:17:14.453Z,3.70
2023-04-19T08:17:50.675Z,3.10
2023-04-19T08:18:48.461Z,4.40
2023-04-19T08:19:48.461Z,2.80
2023-04-19T08:20:48.318Z,3.90
2023-04-19T08:21:48.255Z,3.50
2023-04-19T08:22:48.325Z,4.60
2023-04-19T08:23:48.993Z,4.10
2023-04-19T08:24:49.280Z,3.90
2023-04-19T08:25:48.399Z,3.20
2023-04-19T08:26:48.937Z,3.10
2023-04-19T08:27:48.375Z,4.80
2023-04-19T08:28:48.202Z,3.40
2023-04-19T08:29:48.291Z,3.00
2023-04-19T08:30:48.476Z,4.00
2023-04-19T08:31:48.152Z,4.80
2023-04-19T08:32:48.136Z,3.90
2023-04-19T08:33:48.079Z,3.90
2023-04-19T08:34:48.112Z,3.60
2023-04-19T08:35:48.267Z,3.40
2023-04-19T08:36:55.947Z,3.00
2023-04-19T08:37:50.566Z,3.50
2023-04-19T08:38:54.973Z,3.90
2023-04-19T08:39:49.133Z,2.80
2023-04-19T08:40:48.093Z,3.10
2023-04-19T08:41:52.865Z,2.60
2023-04-19T08:42:50.090Z,4.30
2023-04-19T08:43:48.058Z,4.20
2023-04-19T08:45:06.359Z,2.90
2023-04-19T08:45:50.022Z,3.80
2023-04-19T08:46:48.035Z,2.90
2023-04-19T08:47:59.723Z,3.00
2023-04-19T08:48:50.958Z,4.70
2023-04-19T08:49:51.205Z,6.10
2023-04-19T08:51:01.235Z,2.70
2023-04-19T08:51:48.923Z,2.90
2023-04-19T08:52:55.899Z,3.80
2023-04-19T08:53:49.904Z,3.90
2023-04-19T08:54:47.897Z,3.60
2023-04-19T08:56:03.383Z,3.90
2023-04-19T08:56:49.945Z,3.40
2023-04-19T08:57:47.822Z,4.90
2023-04-19T08:59:48.822Z,8.40
2023-04-19T09:00:47.796Z,4.10
2023-04-19T09:01:47.975Z,4.30
2023-04-19T09:02:48.450Z,3.50
2023-04-19T09:04:02.623Z,12.10
2023-04-19T09:04:50.074Z,5.20
2023-04-19T09:05:48.899Z,3.40
2023-04-19T09:06:47.819Z,3.00
2023-04-19T09:07:47.774Z,3.80
2023-04-19T09:08:48.147Z,3.20
2023-04-19T09:10:02.105Z,3.20
2023-04-19T09:10:49.785Z,3.30
2023-04-19T09:11:47.832Z,3.80
2023-04-19T09:12:48.315Z,2.30
2023-04-19T09:13:47.801Z,3.50
2023-04-19T09:15:00.564Z,3.00
2023-04-19T09:15:49.745Z,3.70
2023-04-19T09:16:48.538Z,3.50
2023-04-19T09:17:48.028Z,4.60
2023-04-19T09:18:59.951Z,3.90
2023-04-19T09:19:50.262Z,3.20
2023-04-19T09:20:47.657Z,3.40
2023-04-19T09:21:47.675Z,2.80
2023-04-19T09:22:47.735Z,3.50
2023-04-19T09:23:47.639Z,3.70
2023-04-19T09:26:48.651Z,3.90
2023-04-19T09:27:47.610Z,3.90
2023-04-19T09:28:47.614Z,2.70
2023-04-19T09:29:47.580Z,2.70
2023-04-19T09:30:59.972Z,3.80
2023-04-19T09:31:51.873Z,2.50
2023-04-19T09:32:49.073Z,3.80
2023-04-19T09:33:47.609Z,3.20
2023-04-19T09:34:47.660Z,2.30
2023-04-19T09:35:48.302Z,3.20
2023-04-19T09:36:47.463Z,3.00
2023-04-19T09:38:48.501Z,2.40
2023-04-19T09:39:47.481Z,4.00
2023-04-19T09:40:47.688Z,2.60
2023-04-19T09:41:47.516Z,3.10
2023-04-19T09:43:00.722Z,3.20
2023-04-19T09:45:20.882Z,2.70
2023-04-19T09:45:49.485Z,2.90
2023-04-19T09:46:47.495Z,2.70
2023-04-19T09:47:47.506Z,3.10
2023-04-19T09:48:47.494Z,2.30
2023-04-19T09:49:49.444Z,3.10
2023-04-19T09:50:55.947Z,3.50
2023-04-19T09:51:49.350Z,3.20
2023-04-19T09:52:47.328Z,3.20
2023-04-19T09:53:47.322Z,2.80
2023-04-19T09:54:47.402Z,3.30
2023-04-19T09:55:59.647Z,4.10
2023-04-19T09:56:48.460Z,4.10
2023-04-19T09:57:47.277Z,2.80
2023-04-19T09:58:53.138Z,3.60
2023-04-19T09:59:49.420Z,3.00
2023-04-19T10:00:49.018Z,5.40
2023-04-19T10:01:48.367Z,2.70
2023-04-19T10:02:48.704Z,4.50
2023-04-19T10:03:47.680Z,2.40
2023-04-19T10:05:03.248Z,3.60
2023-04-19T10:05:49.370Z,2.50
2023-04-19T10:07:49.216Z,3.00
2023-04-19T10:08:47.246Z,3.50
2023-04-19T10:09:53.020Z,4.50
2023-04-19T10:10:49.166Z,3.30
2023-04-19T10:11:48.530Z,2.30
2023-04-19T10:13:11.060Z,4.50
2023-04-19T10:13:49.122Z,3.00
2023-04-19T10:14:47.144Z,4.00
2023-04-19T10:15:52.470Z,3.90
2023-04-19T10:16:49.140Z,3.40
2023-04-19T10:17:47.246Z,3.30
2023-04-19T10:18:47.163Z,2.80
2023-04-19T10:19:47.126Z,2.50
2023-04-19T10:20:47.144Z,2.80
2023-04-19T10:21:47.144Z,3.30
2023-04-19T10:22:46.992Z,3.80
2023-04-19T10:23:47.141Z,3.40
2023-04-19T10:24:48.297Z,3.30
2023-04-19T10:25:47.037Z,3.20
2023-04-19T10:26:47.851Z,3.00
2023-04-19T10:27:46.997Z,3.40
2023-04-19T10:28:46.987Z,2.80
2023-04-19T10:29:46.972Z,2.60
2023-04-19T10:30:46.972Z,3.40
2023-04-19T10:31:47.524Z,2.00
2023-04-19T10:32:47.041Z,2.70
2023-04-19T10:33:47.514Z,2.60
2023-04-19T10:34:46.947Z,3.00
2023-04-19T10:35:47.041Z,2.40
2023-04-19T10:36:46.923Z,3.50
2023-04-19T10:37:46.865Z,2.70
2023-04-19T10:38:47.049Z,3.40
2023-04-19T10:39:46.849Z,2.60
2023-04-19T10:40:46.891Z,2.60
2023-04-19T10:41:46.804Z,3.10
2023-04-19T10:42:46.973Z,3.20
2023-04-19T10:43:46.857Z,2.80
2023-04-19T10:44:46.814Z,4.40
2023-04-19T10:45:46.787Z,4.30
2023-04-19T10:46:46.848Z,2.50
2023-04-19T10:47:46.851Z,2.60
2023-04-19T10:48:46.805Z,2.10
2023-04-19T10:49:46.925Z,2.10
2023-04-19T10:50:46.778Z,2.70
2023-04-19T10:51:46.881Z,2.80
2023-04-19T10:52:46.737Z,3.80
2023-04-19T10:53:46.915Z,3.00
2023-04-19T10:54:46.996Z,3.40
2023-04-19T10:55:46.723Z,3.90
2023-04-19T10:56:46.828Z,3.30
2023-04-19T10:57:46.682Z,3.00
2023-04-19T10:58:48.478Z,3.30
2023-04-19T10:59:46.771Z,2.30
2023-04-19T11:00:46.633Z,3.20
2023-04-19T11:01:46.963Z,2.80
2023-04-19T11:02:46.845Z,3.70
2023-04-19T11:03:46.975Z,2.40
2023-04-19T11:04:46.658Z,3.90
2023-04-19T11:05:47.352Z,3.40
2023-04-19T11:06:46.635Z,3.40
2023-04-19T11:07:46.586Z,3.10
2023-04-19T11:08:46.637Z,3.70
2023-04-19T11:09:46.595Z,3.40
2023-04-19T11:10:46.679Z,3.00
2023-04-19T11:11:46.538Z,2.20
2023-04-19T11:12:46.565Z,3.20
2023-04-19T11:13:46.517Z,2.20
2023-04-19T11:14:46.588Z,4.00
2023-04-19T11:15:46.522Z,3.50
2023-04-19T11:16:46.672Z,2.70
2023-04-19T11:17:46.555Z,4.70
2023-04-19T11:18:46.552Z,4.10
2023-04-19T11:19:47.316Z,3.10
2023-04-19T11:20:46.463Z,4.30
2023-04-19T11:21:46.454Z,2.90
2023-04-19T11:22:46.507Z,3.60
2023-04-19T11:23:46.499Z,2.90
2023-04-19T11:24:47.383Z,3.30
2023-04-19T11:25:46.472Z,2.90
2023-04-19T11:26:46.439Z,5.20
2023-04-19T11:27:46.515Z,3.80
2023-04-19T11:28:46.346Z,2.90
2023-04-19T11:29:46.384Z,3.10
2023-04-19T11:30:46.448Z,2.30
2023-04-19T11:31:47.119Z,2.20
2023-04-19T11:32:46.321Z,2.80
2023-04-19T11:33:46.413Z,3.50
2023-04-19T11:34:46.374Z,4.10
2023-04-19T11:35:46.511Z,2.60
2023-04-19T11:36:46.267Z,4.00
2023-04-19T11:37:46.259Z,2.40
2023-04-19T11:38:46.270Z,2.30
2023-04-19T11:39:46.301Z,2.60
2023-04-19T11:40:46.237Z,2.30
2023-04-19T11:41:46.306Z,2.00
2023-04-19T11:46:29.059Z,2.00
2023-04-19T11:47:24.973Z,2.10
2023-04-19T11:48:24.940Z,2.40
2023-04-19T11:49:24.996Z,2.80
2023-04-19T11:50:24.936Z,3.10
2023-04-19T11:51:26.283Z,4.80
2023-04-19T11:52:26.184Z,3.60
2023-04-19T11:53:26.087Z,3.40
2023-04-19T11:54:26.060Z,2.70
2023-04-19T11:55:26.075Z,3.40
2023-04-19T11:56:26.028Z,2.80
2023-04-19T11:57:26.095Z,3.90
2023-04-19T11:58:26.122Z,4.70
2023-04-19T11:59:27.173Z,3.70
2023-04-19T12:00:26.040Z,2.80
2023-04-19T12:01:26.028Z,2.90
2023-04-19T12:02:26.183Z,2.50
2023-04-19T12:03:26.698Z,2.80
2023-04-19T12:04:27.155Z,2.30
2023-04-19T12:05:26.329Z,2.10
2023-04-19T12:06:26.017Z,3.80
2023-04-19T12:07:26.101Z,2.80
2023-04-19T12:08:26.130Z,3.40
2023-04-19T12:09:26.004Z,3.80
2023-04-19T12:10:26.052Z,3.80
2023-04-19T12:11:25.977Z,3.30
2023-04-19T12:12:25.918Z,3.60
2023-04-19T12:13:25.923Z,2.50
2023-04-19T12:14:25.914Z,2.70
2023-04-19T12:15:27.558Z,1.80
2023-04-19T12:16:26.881Z,2.50
2023-04-19T12:17:25.871Z,3.60
2023-04-19T12:18:25.929Z,3.50
2023-04-19T12:19:25.882Z,2.60
2023-04-19T12:20:25.867Z,2.80
2023-04-19T12:21:25.895Z,2.50
2023-04-19T12:22:25.894Z,2.50
2023-04-19T12:23:25.829Z,5.40
2023-04-19T12:24:26.014Z,3.00
2023-04-19T12:25:25.907Z,2.90
2023-04-19T12:26:25.775Z,5.10
2023-04-19T12:27:26.316Z,3.10
2023-04-19T12:28:25.764Z,3.40
2023-04-19T12:29:25.829Z,3.90
2023-04-19T12:30:25.724Z,3.70
2023-04-19T12:31:25.848Z,3.80
2023-04-19T12:32:25.736Z,4.50
2023-04-19T12:33:25.668Z,4.90
2023-04-19T12:34:25.737Z,3.50
2023-04-19T12:35:25.715Z,3.30
2023-04-19T12:36:25.812Z,3.50
2023-04-19T12:37:25.627Z,2.60
2023-04-19T12:38:25.692Z,4.40
2023-04-19T12:39:25.630Z,2.50
2023-04-19T12:40:25.645Z,4.10
2023-04-19T12:41:25.620Z,3.90
2023-04-19T12:42:25.635Z,4.90
2023-04-19T12:43:26.396Z,2.80
2023-04-19T12:44:25.617Z,2.80
2023-04-19T12:45:25.620Z,2.80
2023-04-19T12:46:25.611Z,1.80
2023-04-19T12:47:25.630Z,2.00
2023-04-19T12:48:25.582Z,5.00
2023-04-19T12:49:25.611Z,3.30
2023-04-19T12:50:25.543Z,2.10
2023-04-19T12:51:25.644Z,2.40
2023-04-19T12:52:25.623Z,2.70
2023-04-19T12:53:25.445Z,2.50
2023-04-19T12:54:25.639Z,4.10
2023-04-19T12:55:25.512Z,1.80
2023-04-19T12:56:25.410Z,4.20
2023-04-19T12:57:25.418Z,3.50
2023-04-19T12:58:25.442Z,3.10
2023-04-19T12:59:25.537Z,2.20
2023-04-19T13:00:25.448Z,2.70
2023-04-19T13:01:25.507Z,6.60
2023-04-19T13:02:25.566Z,3.10
2023-04-19T13:03:25.515Z,3.60
2023-04-19T13:04:25.698Z,3.40
2023-04-19T13:05:25.372Z,2.30
2023-04-19T13:06:25.355Z,2.60
2023-04-19T13:07:25.421Z,4.70
2023-04-19T13:08:37.431Z,4.00
2023-04-19T13:09:27.350Z,2.30
2023-04-19T13:10:25.347Z,2.90
2023-04-19T13:11:25.370Z,3.30
2023-04-19T13:12:25.333Z,3.00
2023-04-19T13:13:25.333Z,3.40
2023-04-19T13:14:25.385Z,3.20
2023-04-19T13:15:26.252Z,3.20
2023-04-19T13:16:25.455Z,3.50
2023-04-19T13:17:25.275Z,3.00
2023-04-19T13:18:25.320Z,2.80
2023-04-19T13:19:25.226Z,3.30
2023-04-19T13:20:26.087Z,3.80
2023-04-19T13:21:25.238Z,2.50
2023-04-19T13:22:25.232Z,2.20
2023-04-19T13:23:25.173Z,2.70
2023-04-19T13:24:25.438Z,2.50
2023-04-19T13:25:25.252Z,1.90
2023-04-19T13:26:25.159Z,2.10
2023-04-19T13:27:25.146Z,1.90
2023-04-19T13:28:25.124Z,2.60
2023-04-19T13:29:25.151Z,2.30
2023-04-19T13:30:25.149Z,3.00
2023-04-19T13:31:25.280Z,2.60
2023-04-19T13:32:25.099Z,3.80
2023-04-19T13:33:25.187Z,2.70
2023-04-19T13:34:25.072Z,3.40
2023-04-19T13:35:25.067Z,4.20
2023-04-19T13:36:25.272Z,3.20
2023-04-19T13:37:25.042Z,3.80
2023-04-19T13:38:25.190Z,2.40
2023-04-19T13:39:26.063Z,3.70
2023-04-19T13:40:25.141Z,2.30
2023-04-19T13:41:25.035Z,2.90
2023-04-19T13:42:25.025Z,3.30
2023-04-19T13:43:25.032Z,2.40
2023-04-19T13:44:25.058Z,3.50
2023-04-19T13:45:25.264Z,2.10
2023-04-19T13:46:25.120Z,2.10
2023-04-19T13:47:25.011Z,3.10
2023-04-19T13:48:25.080Z,2.70